Time;durP1;ratioP1;P1;durP2;ratioP2;P2;SDS_P1;SDS_P2;PMS_P1;PMS_P2;Temp;Humidity;BMP_temperature;BMP_pressure;BME280_temperature;BME280_humidity;BME280_pressure;Samples;Min_cycle;Max_cycle;Signal;HPM_P1;HPM_P2
2023/02/26 00:01:47;;;;;;;;;;;;;;;2.26;98.75;96080.12;110248;1241;59633;-69
2023/02/26 00:04:17;;;;;;;;;;;;;;;2.23;100.00;96076.38;110201;1241;69645;-68
2023/02/26 00:06:52;;;;;;;;;;;;;;;2.22;100.00;96080.58;110243;1242;69768;-69
2023/02/26 00:09:25;;;;;;;;;;;;;;;2.20;99.95;96075.48;110211;1242;69966;-68
2023/02/26 00:11:54;;;;;;;;;;;;;;;2.18;99.89;96076.52;110211;1242;59714;-70
2023/02/26 00:14:24;;;;;;;;;;;;;;;2.15;99.85;96076.88;110210;1240;59809;-69
2023/02/26 00:17:11;;;;;;;;;;;;;;;2.11;99.89;96074.52;110146;1240;70978;-68
2023/02/26 00:19:41;;;;;;;;;;;;;;;2.08;100.00;96074.70;110264;1240;69215;-67
2023/02/26 00:22:10;;;;;;;;;;;;;;;2.07;100.00;96078.19;110193;1240;69277;-68
2023/02/26 00:24:41;;;;;;;;;;;;;;;2.08;100.00;96077.29;110263;1241;59677;-68
2023/02/26 00:27:10;;;;;;;;;;;;;;;2.08;100.00;96076.93;110250;1242;59643;-68
2023/02/26 00:29:40;;;;;;;;;;;;;;;2.06;100.00;96076.54;110164;1244;70837;-68
2023/02/26 00:32:09;;;;;;;;;;;;;;;2.03;100.00;96076.35;110167;1244;69805;-67
2023/02/26 00:34:39;;;;;;;;;;;;;;;2.02;100.00;96074.66;110290;1241;68876;-68
2023/02/26 00:37:10;;;;;;;;;;;;;;;2.02;100.00;96079.52;110250;1242;59713;-68
2023/02/26 00:39:47;;;;;;;;;;;;;;;2.01;100.00;96082.31;110283;1240;59667;-68
2023/02/26 00:42:16;;;;;;;;;;;;;;;2.01;100.00;96081.14;110253;1242;71868;-68
2023/02/26 00:44:45;;;;;;;;;;;;;;;2.00;100.00;96078.63;110269;1242;70190;-68
2023/02/26 00:47:29;;;;;;;;;;;;;;;2.00;100.00;96078.23;110274;1242;69864;-68
2023/02/26 00:50:02;;;;;;;;;;;;;;;2.00;100.00;96078.27;110264;1242;59669;-68
2023/02/26 00:52:35;;;;;;;;;;;;;;;1.98;100.00;96080.45;110267;1240;59660;-70
2023/02/26 00:55:04;;;;;;;;;;;;;;;1.97;100.00;96084.76;110238;1242;71765;-68
2023/02/26 00:57:33;;;;;;;;;;;;;;;1.97;100.00;96085.17;110269;1242;69167;-68
2023/02/26 01:00:06;;;;;;;;;;;;;;;1.96;100.00;96085.55;110198;1245;69606;-68
2023/02/26 01:02:37;;;;;;;;;;;;;;;1.94;100.00;96075.38;110309;1242;59726;-68
2023/02/26 01:05:07;;;;;;;;;;;;;;;1.92;100.00;96075.27;110353;1242;59685;-69
2023/02/26 01:07:43;;;;;;;;;;;;;;;1.91;100.00;96069.88;110260;1242;70437;-69
2023/02/26 01:10:13;;;;;;;;;;;;;;;1.89;100.00;96069.49;110110;1244;69656;-69
2023/02/26 01:12:42;;;;;;;;;;;;;;;1.88;100.00;96074.52;110133;1244;69255;-70
2023/02/26 01:15:12;;;;;;;;;;;;;;;1.88;100.00;96081.02;110259;1243;59669;-70
2023/02/26 01:17:51;;;;;;;;;;;;;;;1.89;100.00;96084.59;110229;1242;59681;-68
2023/02/26 01:20:22;;;;;;;;;;;;;;;1.88;100.00;96089.61;110187;1241;71240;-69
2023/02/26 01:22:54;;;;;;;;;;;;;;;1.86;100.00;96087.88;110159;1241;69574;-68
2023/02/26 01:25:29;;;;;;;;;;;;;;;1.79;100.00;96086.22;110209;1242;69727;-69
2023/02/26 01:27:59;;;;;;;;;;;;;;;1.72;100.00;96089.75;110216;1242;59677;-69
2023/02/26 01:30:29;;;;;;;;;;;;;;;1.66;100.00;96098.64;110250;1241;59737;-68
2023/02/26 01:32:58;;;;;;;;;;;;;;;1.64;100.00;96100.18;110222;1242;71424;-68
2023/02/26 01:35:46;;;;;;;;;;;;;;;1.59;100.00;96101.48;110203;1242;69794;-68
2023/02/26 01:38:30;;;;;;;;;;;;;;;1.51;100.00;96107.90;110223;1242;69856;-68
2023/02/26 01:40:58;;;;;;;;;;;;;;;1.44;100.00;96109.19;110205;1242;59704;-68
2023/02/26 01:43:47;;;;;;;;;;;;;;;1.40;100.00;96113.87;110142;1244;59639;-69
2023/02/26 01:46:22;;;;;;;;;;;;;;;1.37;100.00;96113.02;110185;1241;71225;-69
2023/02/26 01:48:53;;;;;;;;;;;;;;;1.30;100.00;96107.58;110088;1245;68306;-68
2023/02/26 01:51:40;;;;;;;;;;;;;;;1.23;100.00;96103.52;110164;1241;69109;-68
2023/02/26 01:54:11;;;;;;;;;;;;;;;1.15;100.00;96100.03;110255;1242;59705;-68
2023/02/26 01:56:41;;;;;;;;;;;;;;;1.05;100.00;96093.06;110217;1242;59722;-69
2023/02/26 01:59:13;;;;;;;;;;;;;;;0.95;100.00;96083.65;110118;1245;70615;-69
2023/02/26 02:01:42;;;;;;;;;;;;;;;0.85;100.00;96081.48;110225;1241;67838;-69
2023/02/26 02:04:14;;;;;;;;;;;;;;;0.78;100.00;96081.67;110216;1241;68517;-69
2023/02/26 02:06:45;;;;;;;;;;;;;;;0.75;100.00;96076.19;110231;1241;59713;-68
2023/02/26 02:09:14;;;;;;;;;;;;;;;0.75;100.00;96074.65;110223;1242;59676;-68
2023/02/26 02:12:04;;;;;;;;;;;;;;;0.72;100.00;96068.08;110223;1241;71431;-68
2023/02/26 02:14:37;;;;;;;;;;;;;;;0.67;100.00;96064.45;109874;1241;70083;-68
2023/02/26 02:17:18;;;;;;;;;;;;;;;0.60;100.00;96058.65;110146;1241;68799;-68
2023/02/26 02:19:58;;;;;;;;;;;;;;;0.51;100.00;96062.90;110215;1242;59710;-68
2023/02/26 02:22:36;;;;;;;;;;;;;;;0.42;100.00;96066.95;110195;1242;59668;-69
2023/02/26 02:25:31;;;;;;;;;;;;;;;0.38;100.00;96065.52;110251;1241;70619;-69
2023/02/26 02:28:19;;;;;;;;;;;;;;;0.35;100.00;96059.66;110145;1245;69480;-68
2023/02/26 02:30:55;;;;;;;;;;;;;;;0.33;100.00;96057.02;110186;1240;68532;-68
2023/02/26 02:33:32;;;;;;;;;;;;;;;0.34;100.00;96058.69;110237;1248;59678;-68
2023/02/26 02:36:07;;;;;;;;;;;;;;;0.32;100.00;96066.49;110214;1242;59627;-68
2023/02/26 02:38:41;;;;;;;;;;;;;;;0.32;100.00;96071.65;110210;1242;71239;-68
2023/02/26 02:41:18;;;;;;;;;;;;;;;0.32;100.00;96071.80;110134;1240;68364;-68
2023/02/26 02:43:49;;;;;;;;;;;;;;;0.32;100.00;96069.58;110041;1241;69120;-68
2023/02/26 02:46:27;;;;;;;;;;;;;;;0.32;100.00;96071.98;110123;1241;59741;-68
2023/02/26 02:49:07;;;;;;;;;;;;;;;0.29;100.00;96073.52;110166;1245;59805;-68
2023/02/26 02:51:38;;;;;;;;;;;;;;;0.27;100.00;96080.13;110287;1242;71394;-68
2023/02/26 02:54:11;;;;;;;;;;;;;;;0.25;100.00;96086.20;110209;1243;68494;-68
2023/02/26 02:57:10;;;;;;;;;;;;;;;0.25;100.00;96092.04;110201;1240;67709;-68
2023/02/26 02:59:43;;;;;;;;;;;;;;;0.24;100.00;96084.42;109938;1244;59763;-68
2023/02/26 03:02:29;;;;;;;;;;;;;;;0.23;100.00;96084.11;110239;1242;59630;-68
2023/02/26 03:04:59;;;;;;;;;;;;;;;0.20;100.00;96085.45;110221;1242;71753;-69
2023/02/26 03:07:32;;;;;;;;;;;;;;;0.20;100.00;96088.23;110208;1240;69147;-68
2023/02/26 03:10:01;;;;;;;;;;;;;;;0.17;100.00;96088.88;110219;1241;69256;-68
2023/02/26 03:12:31;;;;;;;;;;;;;;;0.18;100.00;96083.67;110109;1245;59734;-68
2023/02/26 03:15:04;;;;;;;;;;;;;;;0.20;100.00;96091.15;110090;1244;59738;-68
2023/02/26 03:17:51;;;;;;;;;;;;;;;0.19;100.00;96089.81;109832;1245;70682;-68
2023/02/26 03:20:21;;;;;;;;;;;;;;;0.17;100.00;96096.58;110126;1245;69214;-68
2023/02/26 03:23:02;;;;;;;;;;;;;;;0.17;100.00;96098.14;110123;1245;69269;-68
2023/02/26 03:25:35;;;;;;;;;;;;;;;0.18;100.00;96106.13;110182;1240;59695;-68
2023/02/26 03:28:08;;;;;;;;;;;;;;;0.17;100.00;96100.56;110118;1245;59680;-68
2023/02/26 03:30:41;;;;;;;;;;;;;;;0.14;100.00;96103.42;110062;1245;69908;-68
2023/02/26 03:33:28;;;;;;;;;;;;;;;0.12;100.00;96106.30;110175;1244;68961;-68
2023/02/26 03:36:05;;;;;;;;;;;;;;;0.12;100.00;96103.72;110203;1241;69111;-68
2023/02/26 03:38:42;;;;;;;;;;;;;;;0.12;100.00;96101.67;110087;1242;59705;-68
2023/02/26 03:41:16;;;;;;;;;;;;;;;0.10;100.00;96103.83;110094;1241;59710;-68
2023/02/26 03:43:57;;;;;;;;;;;;;;;0.13;100.00;96101.45;109913;1245;70686;-68
2023/02/26 03:46:30;;;;;;;;;;;;;;;0.12;100.00;96096.85;109810;1241;69251;-68
2023/02/26 03:49:04;;;;;;;;;;;;;;;0.13;100.00;96098.35;109836;1241;68517;-68
2023/02/26 03:51:35;;;;;;;;;;;;;;;0.13;100.00;96094.79;109857;1241;59720;-68
2023/02/26 03:54:26;;;;;;;;;;;;;;;0.11;100.00;96082.54;110168;1240;60101;-68
2023/02/26 03:57:09;;;;;;;;;;;;;;;0.09;100.00;96082.94;110152;1244;71897;-69
2023/02/26 04:00:12;;;;;;;;;;;;;;;0.05;100.00;96081.46;110195;1244;69558;-69
2023/02/26 04:02:51;;;;;;;;;;;;;;;0.05;100.00;96074.12;110246;1240;69280;-68
2023/02/26 04:05:47;;;;;;;;;;;;;;;0.06;100.00;96069.78;110196;1243;59747;-69
2023/02/26 04:08:17;;;;;;;;;;;;;;;0.05;100.00;96070.65;110233;1240;59692;-69
2023/02/26 04:11:12;;;;;;;;;;;;;;;0.04;100.00;96067.66;110176;1242;71487;-67
2023/02/26 04:13:42;;;;;;;;;;;;;;;0.03;100.00;96067.22;110130;1244;69881;-68
2023/02/26 04:16:12;;;;;;;;;;;;;;;0.03;100.00;96064.95;110094;1245;68520;-68
2023/02/26 04:18:41;;;;;;;;;;;;;;;0.05;100.00;96069.98;110133;1244;59764;-68
2023/02/26 04:21:12;;;;;;;;;;;;;;;0.05;100.00;96073.77;110195;1245;59604;-68
2023/02/26 04:23:41;;;;;;;;;;;;;;;0.05;100.00;96076.02;110145;1245;71988;-68
2023/02/26 04:26:12;;;;;;;;;;;;;;;0.06;100.00;96078.88;110175;1245;69822;-68
2023/02/26 04:28:41;;;;;;;;;;;;;;;0.07;100.00;96074.70;110212;1242;70179;-68
2023/02/26 04:31:13;;;;;;;;;;;;;;;0.08;100.00;96077.55;110189;1249;59686;-68
2023/02/26 04:33:43;;;;;;;;;;;;;;;0.07;100.00;96082.06;110117;1245;59678;-68
2023/02/26 04:36:12;;;;;;;;;;;;;;;0.08;100.00;96083.05;110236;1242;71416;-69
2023/02/26 04:38:42;;;;;;;;;;;;;;;0.09;100.00;96080.22;110118;1244;69115;-69
2023/02/26 04:41:11;;;;;;;;;;;;;;;0.09;100.00;96067.21;110231;1241;69273;-69
2023/02/26 04:43:41;;;;;;;;;;;;;;;0.04;100.00;96064.39;110250;1242;59668;-69
2023/02/26 04:46:20;;;;;;;;;;;;;;;-0.01;100.00;96065.86;110236;1242;59697;-69
2023/02/26 04:48:50;;;;;;;;;;;;;;;-0.07;100.00;96070.79;110222;1242;71951;-68
2023/02/26 04:51:20;;;;;;;;;;;;;;;-0.08;100.00;96075.29;110180;1240;69269;-70
2023/02/26 04:53:51;;;;;;;;;;;;;;;-0.09;100.00;96078.77;110223;1242;68705;-69
2023/02/26 04:56:20;;;;;;;;;;;;;;;-0.10;100.00;96079.31;110179;1244;59766;-70
2023/02/26 04:58:50;;;;;;;;;;;;;;;-0.08;100.00;96085.05;110288;1242;60059;-69
2023/02/26 05:01:24;;;;;;;;;;;;;;;-0.06;100.00;96081.51;110249;1241;71356;-68
2023/02/26 05:03:53;;;;;;;;;;;;;;;-0.05;100.00;96082.14;110160;1244;69255;-69
2023/02/26 05:06:22;;;;;;;;;;;;;;;-0.05;100.00;96081.65;110113;1241;68681;-69
2023/02/26 05:08:52;;;;;;;;;;;;;;;-0.07;100.00;96077.60;110194;1242;59678;-69
2023/02/26 05:11:21;;;;;;;;;;;;;;;-0.07;100.00;96076.61;110186;1242;59673;-69
2023/02/26 05:13:50;;;;;;;;;;;;;;;-0.09;100.00;96073.44;110178;1241;71794;-69
2023/02/26 05:16:20;;;;;;;;;;;;;;;-0.11;100.00;96072.19;110184;1242;69285;-69
2023/02/26 05:18:49;;;;;;;;;;;;;;;-0.12;100.00;96067.79;110203;1241;69173;-68
2023/02/26 05:21:18;;;;;;;;;;;;;;;-0.14;100.00;96067.36;110240;1242;59715;-68
2023/02/26 05:23:47;;;;;;;;;;;;;;;-0.14;100.00;96068.06;110226;1240;59671;-69
2023/02/26 05:26:17;;;;;;;;;;;;;;;-0.20;100.00;96069.22;110251;1242;71413;-69
2023/02/26 05:28:48;;;;;;;;;;;;;;;-0.21;100.00;96071.32;110209;1241;68554;-69
2023/02/26 05:31:17;;;;;;;;;;;;;;;-0.24;100.00;96075.95;110104;1245;68490;-69
2023/02/26 05:33:46;;;;;;;;;;;;;;;-0.23;100.00;96076.26;110193;1240;59705;-69
2023/02/26 05:36:15;;;;;;;;;;;;;;;-0.23;100.00;96074.53;110254;1242;59685;-69
2023/02/26 05:38:44;;;;;;;;;;;;;;;-0.23;100.00;96076.08;110248;1242;70672;-68
2023/02/26 05:41:13;;;;;;;;;;;;;;;-0.24;100.00;96077.82;110242;1241;68504;-69
2023/02/26 05:43:42;;;;;;;;;;;;;;;-0.27;100.00;96076.45;110317;1241;69967;-68
2023/02/26 05:46:11;;;;;;;;;;;;;;;-0.28;100.00;96079.92;110361;1242;59692;-69
2023/02/26 05:48:40;;;;;;;;;;;;;;;-0.28;100.00;96082.80;110282;1242;59643;-69
2023/02/26 05:51:12;;;;;;;;;;;;;;;-0.26;100.00;96087.84;110423;1241;70712;-69
2023/02/26 05:53:41;;;;;;;;;;;;;;;-0.24;100.00;96091.02;110170;1242;69045;-69
2023/02/26 05:56:11;;;;;;;;;;;;;;;-0.22;100.00;96095.70;110107;1245;69870;-69
2023/02/26 05:58:39;;;;;;;;;;;;;;;-0.20;100.00;96100.20;110390;1242;59678;-69
2023/02/26 06:01:08;;;;;;;;;;;;;;;-0.18;100.00;96103.21;110172;1241;59733;-69
2023/02/26 06:03:42;;;;;;;;;;;;;;;-0.16;100.00;96100.20;110164;1242;72101;-69
2023/02/26 06:06:13;;;;;;;;;;;;;;;-0.17;100.00;96102.30;110217;1240;68586;-68
2023/02/26 06:08:41;;;;;;;;;;;;;;;-0.17;100.00;96104.55;110188;1242;69114;-69
2023/02/26 06:11:11;;;;;;;;;;;;;;;-0.19;100.00;96101.36;110163;1243;59719;-69
2023/02/26 06:13:40;;;;;;;;;;;;;;;-0.21;100.00;96097.72;110197;1242;59692;-69
2023/02/26 06:16:08;;;;;;;;;;;;;;;-0.22;100.00;96098.46;110240;1242;71416;-68
2023/02/26 06:18:37;;;;;;;;;;;;;;;-0.22;100.00;96100.34;110237;1242;69408;-69
2023/02/26 06:21:06;;;;;;;;;;;;;;;-0.23;100.00;96102.80;110205;1242;69859;-69
2023/02/26 06:23:35;;;;;;;;;;;;;;;-0.22;100.00;96097.59;110334;1243;59685;-69
2023/02/26 06:26:04;;;;;;;;;;;;;;;-0.21;100.00;96104.23;110369;1242;59678;-69
2023/02/26 06:28:32;;;;;;;;;;;;;;;-0.23;100.00;96097.98;110239;1242;71187;-69
2023/02/26 06:31:02;;;;;;;;;;;;;;;-0.24;100.00;96089.98;110161;1247;69669;-69
2023/02/26 06:33:31;;;;;;;;;;;;;;;-0.23;100.00;96093.54;110234;1242;69114;-69
2023/02/26 06:36:00;;;;;;;;;;;;;;;-0.25;100.00;96092.92;110181;1240;59732;-69
2023/02/26 06:38:29;;;;;;;;;;;;;;;-0.27;100.00;96094.42;110273;1242;59691;-69
2023/02/26 06:40:57;;;;;;;;;;;;;;;-0.26;100.00;96095.73;110419;1240;71947;-69
2023/02/26 06:43:26;;;;;;;;;;;;;;;-0.25;100.00;96097.40;110293;1242;68593;-68
2023/02/26 06:45:58;;;;;;;;;;;;;;;-0.22;100.00;96097.27;110209;1242;69952;-68
2023/02/26 06:48:27;;;;;;;;;;;;;;;-0.20;100.00;96095.77;110285;1242;59748;-69
2023/02/26 06:50:56;;;;;;;;;;;;;;;-0.18;100.00;96092.59;110275;1240;59734;-68
2023/02/26 06:53:24;;;;;;;;;;;;;;;-0.15;100.00;96086.80;110224;1241;71379;-69
2023/02/26 06:55:53;;;;;;;;;;;;;;;-0.14;100.00;96089.46;110417;1242;69078;-68
2023/02/26 06:58:22;;;;;;;;;;;;;;;-0.09;100.00;96088.73;110179;1245;68087;-68
2023/02/26 07:00:51;;;;;;;;;;;;;;;-0.09;100.00;96088.87;110311;1243;59743;-68
2023/02/26 07:03:20;;;;;;;;;;;;;;;-0.10;100.00;96090.12;110255;1242;59646;-68
2023/02/26 07:05:49;;;;;;;;;;;;;;;-0.09;100.00;96088.88;110244;1241;71950;-69
2023/02/26 07:08:18;;;;;;;;;;;;;;;-0.10;100.00;96090.44;110221;1242;69213;-68
2023/02/26 07:10:48;;;;;;;;;;;;;;;-0.07;100.00;96085.66;110179;1243;69237;-68
2023/02/26 07:13:17;;;;;;;;;;;;;;;-0.05;100.00;96084.86;110158;1248;59700;-68
2023/02/26 07:15:45;;;;;;;;;;;;;;;-0.03;100.00;96086.14;110200;1242;59675;-68
2023/02/26 07:18:14;;;;;;;;;;;;;;;-0.03;100.00;96084.79;110189;1249;71981;-68
2023/02/26 07:20:43;;;;;;;;;;;;;;;-0.03;100.00;96082.05;110153;1242;70034;-68
2023/02/26 07:23:12;;;;;;;;;;;;;;;-0.01;100.00;96071.67;110328;1242;69125;-68
2023/02/26 07:25:41;;;;;;;;;;;;;;;-0.02;100.00;96066.91;110203;1242;59654;-68
2023/02/26 07:28:09;;;;;;;;;;;;;;;0.02;100.00;96068.27;110181;1242;59666;-68
2023/02/26 07:30:41;;;;;;;;;;;;;;;0.04;100.00;96078.29;110172;1243;71369;-68
2023/02/26 07:33:09;;;;;;;;;;;;;;;0.05;100.00;96078.08;110192;1243;69220;-68
2023/02/26 07:35:40;;;;;;;;;;;;;;;0.07;100.00;96081.21;110321;1242;68294;-68
2023/02/26 07:38:09;;;;;;;;;;;;;;;0.09;100.00;96080.58;110217;1241;59721;-68
2023/02/26 07:40:38;;;;;;;;;;;;;;;0.12;100.00;96080.58;110277;1242;59706;-68
2023/02/26 07:43:07;;;;;;;;;;;;;;;0.16;100.00;96078.81;110238;1241;72460;-68
2023/02/26 07:45:35;;;;;;;;;;;;;;;0.16;100.00;96084.67;109742;1243;597282;-68
2023/02/26 07:48:04;;;;;;;;;;;;;;;0.17;100.00;96084.24;110237;1241;69807;-68
2023/02/26 07:50:33;;;;;;;;;;;;;;;0.17;100.00;96086.34;110212;1241;59753;-67
2023/02/26 07:53:01;;;;;;;;;;;;;;;0.21;100.00;96091.08;110173;1242;59633;-68
2023/02/26 07:55:30;;;;;;;;;;;;;;;0.19;100.00;96096.17;110218;1242;69782;-68
2023/02/26 07:57:59;;;;;;;;;;;;;;;0.21;100.00;96097.41;110148;1242;69273;-68
2023/02/26 08:00:28;;;;;;;;;;;;;;;0.20;100.00;96101.40;110223;1242;69723;-68
2023/02/26 08:02:56;;;;;;;;;;;;;;;0.24;100.00;96105.29;110161;1242;59815;-68
2023/02/26 08:05:25;;;;;;;;;;;;;;;0.27;100.00;96101.07;110180;1241;59732;-67
2023/02/26 08:07:57;;;;;;;;;;;;;;;0.30;100.00;96097.27;110233;1242;71988;-68
2023/02/26 08:10:25;;;;;;;;;;;;;;;0.34;100.00;96098.98;110210;1242;69643;-68
2023/02/26 08:12:54;;;;;;;;;;;;;;;0.32;100.00;96097.86;110253;1241;69859;-68
2023/02/26 08:15:23;;;;;;;;;;;;;;;0.39;100.00;96098.20;109880;1241;59759;-68
2023/02/26 08:17:52;;;;;;;;;;;;;;;0.42;100.00;96101.45;110251;1245;59692;-70
2023/02/26 08:20:21;;;;;;;;;;;;;;;0.51;100.00;96093.95;110237;1242;71451;-69
2023/02/26 08:22:50;;;;;;;;;;;;;;;0.50;100.00;96092.98;110228;1241;69181;-68
2023/02/26 08:25:19;;;;;;;;;;;;;;;0.57;100.00;96096.73;110204;1241;69744;-69
2023/02/26 08:27:48;;;;;;;;;;;;;;;0.58;100.00;96090.64;110286;1240;59744;-68
2023/02/26 08:30:17;;;;;;;;;;;;;;;0.63;100.00;96091.23;110216;1242;59670;-71
2023/02/26 08:32:45;;;;;;;;;;;;;;;0.69;100.00;96092.42;110218;1244;70629;-68
2023/02/26 08:35:14;;;;;;;;;;;;;;;0.73;100.00;96102.84;110214;1240;69050;-68
2023/02/26 08:37:43;;;;;;;;;;;;;;;0.80;100.00;96102.33;110218;1242;67722;-68
2023/02/26 08:40:12;;;;;;;;;;;;;;;0.86;100.00;96105.77;110158;1241;59677;-66
2023/02/26 08:42:42;;;;;;;;;;;;;;;0.90;100.00;96114.98;110225;1242;59692;-68
2023/02/26 08:45:11;;;;;;;;;;;;;;;0.95;100.00;96123.93;110302;1242;71365;-68
2023/02/26 08:47:42;;;;;;;;;;;;;;;1.03;100.00;96126.97;110253;1242;69686;-66
2023/02/26 08:50:24;;;;;;;;;;;;;;;1.13;100.00;96126.91;110169;1241;69254;-68
2023/02/26 08:52:52;;;;;;;;;;;;;;;1.22;100.00;96130.66;110207;1241;59679;-67
2023/02/26 08:55:20;;;;;;;;;;;;;;;1.30;100.00;96135.58;110243;1242;59689;-67
2023/02/26 08:57:49;;;;;;;;;;;;;;;1.36;100.00;96137.33;110224;1240;71973;-67
2023/02/26 09:00:18;;;;;;;;;;;;;;;1.43;100.00;96139.98;110285;1241;69115;-67
2023/02/26 09:02:47;;;;;;;;;;;;;;;1.50;100.00;96139.58;110215;1243;68548;-68
2023/02/26 09:05:16;;;;;;;;;;;;;;;1.55;100.00;96139.48;110306;1242;59766;-68
2023/02/26 09:07:44;;;;;;;;;;;;;;;1.60;100.00;96134.88;110192;1243;59656;-68
2023/02/26 09:10:14;;;;;;;;;;;;;;;1.64;100.00;96136.73;110182;1241;71067;-68
2023/02/26 09:12:43;;;;;;;;;;;;;;;1.51;100.00;96146.21;110235;1243;68097;-68
2023/02/26 09:15:13;;;;;;;;;;;;;;;1.50;100.00;96147.60;110213;1240;69870;-68
2023/02/26 09:17:41;;;;;;;;;;;;;;;1.56;100.00;96150.77;110116;1244;59741;-68
2023/02/26 09:20:12;;;;;;;;;;;;;;;1.59;100.00;96151.96;110156;1242;59681;-68
2023/02/26 09:22:41;;;;;;;;;;;;;;;1.57;100.00;96149.83;110182;1241;71492;-68
2023/02/26 09:25:10;;;;;;;;;;;;;;;1.60;100.00;96154.85;110227;1249;69827;-68
2023/02/26 09:27:39;;;;;;;;;;;;;;;1.58;100.00;96152.73;110217;1243;69689;-68
2023/02/26 09:30:08;;;;;;;;;;;;;;;1.56;100.00;96150.07;110401;1243;59734;-68
2023/02/26 09:32:36;;;;;;;;;;;;;;;1.45;100.00;96150.86;110213;1244;59678;-68
2023/02/26 09:35:05;;;;;;;;;;;;;;;1.45;100.00;96151.91;110302;1249;70186;-68
2023/02/26 09:37:34;;;;;;;;;;;;;;;1.50;100.00;96153.85;110331;1244;69199;-68
2023/02/26 09:40:03;;;;;;;;;;;;;;;1.54;100.00;96151.89;110247;1241;69283;-68
2023/02/26 09:42:50;;;;;;;;;;;;;;;1.61;100.00;96156.68;110187;1241;59780;-68
2023/02/26 09:45:26;;;;;;;;;;;;;;;1.64;100.00;96163.83;110321;1242;59692;-70
2023/02/26 09:47:55;;;;;;;;;;;;;;;1.67;100.00;96171.63;110218;1249;71333;-68
2023/02/26 09:50:27;;;;;;;;;;;;;;;1.68;100.00;96173.95;110268;1245;70023;-68
2023/02/26 09:53:04;;;;;;;;;;;;;;;1.71;100.00;96180.98;110341;1242;69277;-68
2023/02/26 09:55:43;;;;;;;;;;;;;;;1.71;100.00;96177.19;110249;1241;59745;-69
2023/02/26 09:58:17;;;;;;;;;;;;;;;1.67;100.00;96181.00;110337;1241;59698;-69
2023/02/26 10:01:05;;;;;;;;;;;;;;;1.71;100.00;96185.42;110292;1242;70976;-69
2023/02/26 10:03:33;;;;;;;;;;;;;;;1.74;100.00;96183.20;110377;1242;69044;-68
2023/02/26 10:06:07;;;;;;;;;;;;;;;1.83;100.00;96179.80;110234;1242;68861;-69
2023/02/26 10:08:41;;;;;;;;;;;;;;;1.95;100.00;96178.74;110272;1244;59664;-68
2023/02/26 10:11:10;;;;;;;;;;;;;;;2.07;100.00;96183.35;110271;1242;59696;-68
2023/02/26 10:13:45;;;;;;;;;;;;;;;2.19;100.00;96189.34;110238;1244;71352;-68
2023/02/26 10:16:32;;;;;;;;;;;;;;;2.37;100.00;96195.70;110178;1242;69224;-68
2023/02/26 10:19:04;;;;;;;;;;;;;;;2.50;100.00;96192.52;110213;1241;69290;-69
2023/02/26 10:21:41;;;;;;;;;;;;;;;2.51;99.96;96197.75;110306;1242;59721;-68
2023/02/26 10:24:14;;;;;;;;;;;;;;;2.63;100.00;96198.96;110233;1242;59669;-69
2023/02/26 10:26:45;;;;;;;;;;;;;;;2.75;100.00;96192.19;110274;1243;70232;-69
2023/02/26 10:29:21;;;;;;;;;;;;;;;2.85;99.93;96187.14;110209;1242;68725;-68
2023/02/26 10:31:50;;;;;;;;;;;;;;;2.95;99.97;96190.13;110124;1242;69891;-68
2023/02/26 10:34:19;;;;;;;;;;;;;;;3.02;99.68;96193.30;110223;1240;59732;-69
2023/02/26 10:37:06;;;;;;;;;;;;;;;3.03;98.77;96188.41;110208;1249;59690;-68
2023/02/26 10:39:47;;;;;;;;;;;;;;;2.92;97.76;96185.46;110240;1242;71258;-69
2023/02/26 10:42:19;;;;;;;;;;;;;;;2.91;99.37;96181.25;110202;1249;69708;-68
2023/02/26 10:45:03;;;;;;;;;;;;;;;2.90;99.58;96187.31;110431;1242;69931;-68
2023/02/26 10:47:42;;;;;;;;;;;;;;;2.96;99.03;96188.67;110329;1242;59796;-68
2023/02/26 10:50:16;;;;;;;;;;;;;;;3.00;99.07;96187.05;110383;1241;59675;-68
2023/02/26 10:52:46;;;;;;;;;;;;;;;3.00;98.78;96192.72;110281;1242;70667;-69
2023/02/26 10:55:32;;;;;;;;;;;;;;;3.03;99.80;96199.95;110244;1241;68432;-68
2023/02/26 10:58:13;;;;;;;;;;;;;;;3.07;98.88;96206.10;110262;1243;69285;-69
2023/02/26 11:00:43;;;;;;;;;;;;;;;3.07;98.35;96207.26;110275;1242;59825;-69
2023/02/26 11:03:19;;;;;;;;;;;;;;;3.05;97.22;96209.63;110281;1242;59641;-69
2023/02/26 11:05:48;;;;;;;;;;;;;;;3.04;97.26;96211.20;110325;1245;71044;-69
2023/02/26 11:08:19;;;;;;;;;;;;;;;3.02;97.81;96219.29;110248;1241;69269;-69
2023/02/26 11:10:52;;;;;;;;;;;;;;;2.95;98.73;96222.10;110281;1241;69226;-69
2023/02/26 11:13:22;;;;;;;;;;;;;;;2.94;99.35;96226.33;110204;1242;59669;-69
2023/02/26 11:15:52;;;;;;;;;;;;;;;3.06;100.00;96232.66;110256;1244;59751;-69
2023/02/26 11:18:23;;;;;;;;;;;;;;;3.12;99.73;96230.25;110319;1240;71179;-67
2023/02/26 11:20:54;;;;;;;;;;;;;;;3.17;98.72;96228.31;110236;1242;69223;-67
2023/02/26 11:23:25;;;;;;;;;;;;;;;3.20;97.32;96233.01;110252;1242;69710;-68
2023/02/26 11:26:01;;;;;;;;;;;;;;;3.18;96.22;96233.96;110244;1249;59746;-68
2023/02/26 11:28:34;;;;;;;;;;;;;;;3.17;96.57;96235.39;110254;1248;59673;-68
2023/02/26 11:31:08;;;;;;;;;;;;;;;3.16;97.59;96235.80;110211;1243;71336;-68
2023/02/26 11:33:38;;;;;;;;;;;;;;;3.18;96.44;96242.91;110197;1243;68300;-68
2023/02/26 11:36:10;;;;;;;;;;;;;;;3.24;96.83;96246.86;110186;1243;69066;-68
2023/02/26 11:38:39;;;;;;;;;;;;;;;3.19;96.74;96245.64;110209;1242;59753;-68
2023/02/26 11:41:08;;;;;;;;;;;;;;;3.22;96.06;96244.20;110256;1243;59716;-68
2023/02/26 11:43:41;;;;;;;;;;;;;;;3.34;96.26;96239.37;110234;1240;71893;-67
2023/02/26 11:46:12;;;;;;;;;;;;;;;3.33;95.75;96243.38;110249;1242;69135;-67
2023/02/26 11:48:46;;;;;;;;;;;;;;;3.36;96.88;96241.62;110227;1242;69847;-68
2023/02/26 11:51:17;;;;;;;;;;;;;;;3.42;97.43;96240.55;110201;1242;59788;-68
2023/02/26 11:54:00;;;;;;;;;;;;;;;3.55;97.56;96236.98;110184;1242;60082;-68
2023/02/26 11:56:30;;;;;;;;;;;;;;;3.73;97.92;96231.52;110196;1242;71798;-68
2023/02/26 11:59:07;;;;;;;;;;;;;;;3.90;96.91;96235.23;110222;1242;69300;-68
2023/02/26 12:01:36;;;;;;;;;;;;;;;4.04;96.41;96237.60;110225;1242;67633;-68
2023/02/26 12:04:06;;;;;;;;;;;;;;;4.15;96.23;96226.38;110213;1242;59734;-68
2023/02/26 12:06:35;;;;;;;;;;;;;;;4.25;95.10;96221.55;110273;1242;59681;-69
2023/02/26 12:09:05;;;;;;;;;;;;;;;4.35;94.86;96224.02;110188;1242;70913;-70
2023/02/26 12:11:33;;;;;;;;;;;;;;;4.43;95.03;96232.80;110233;1242;69823;-69
2023/02/26 12:14:16;;;;;;;;;;;;;;;4.40;94.04;96245.95;110202;1242;70148;-67
2023/02/26 12:16:48;;;;;;;;;;;;;;;4.42;94.21;96250.81;110205;1247;59756;-69
2023/02/26 12:19:34;;;;;;;;;;;;;;;4.35;93.22;96249.52;110204;1241;59730;-67
2023/02/26 12:22:32;;;;;;;;;;;;;;;4.33;93.63;96259.69;110201;1242;70236;-67
2023/02/26 12:25:20;;;;;;;;;;;;;;;4.28;93.71;96265.75;109506;1251;68848;-69
2023/02/26 12:27:58;;;;;;;;;;;;;;;4.24;94.41;96271.34;110173;1241;70031;-68
2023/02/26 12:30:32;;;;;;;;;;;;;;;4.20;94.04;96271.61;110231;1242;59754;-68
2023/02/26 12:33:01;;;;;;;;;;;;;;;4.17;94.34;96279.20;110208;1242;59681;-69
2023/02/26 12:35:32;;;;;;;;;;;;;;;4.11;93.63;96286.30;110205;1243;71199;-68
2023/02/26 12:38:00;;;;;;;;;;;;;;;3.94;92.67;96285.49;110162;1242;70164;-68
2023/02/26 12:40:32;;;;;;;;;;;;;;;3.88;93.42;96284.02;110188;1242;68795;-69
2023/02/26 12:43:00;;;;;;;;;;;;;;;3.87;94.12;96291.48;110193;1242;59804;-69
2023/02/26 12:45:41;;;;;;;;;;;;;;;3.77;94.36;96289.16;110174;1242;60031;-67
2023/02/26 12:48:28;;;;;;;;;;;;;;;3.81;95.17;96292.05;110254;1242;71697;-69
2023/02/26 12:51:15;;;;;;;;;;;;;;;3.86;95.55;96292.79;110266;1243;69225;-69
2023/02/26 12:53:50;;;;;;;;;;;;;;;3.86;94.94;96297.59;110232;1242;68441;-68
2023/02/26 12:56:18;;;;;;;;;;;;;;;3.79;94.96;96298.86;110283;1243;59677;-68
2023/02/26 12:59:06;;;;;;;;;;;;;;;3.71;95.98;96306.77;110262;1242;59630;-69
2023/02/26 13:01:46;;;;;;;;;;;;;;;3.76;96.33;96304.59;110243;1241;71338;-68
2023/02/26 13:04:39;;;;;;;;;;;;;;;3.79;96.89;96307.66;110201;1241;69228;-68